Time;durP1;ratioP1;P1;durP2;ratioP2;P2;SDS_P1;SDS_P2;PMS_P1;PMS_P2;Temp;Humidity;BMP_temperature;BMP_pressure;BME280_temperature;BME280_humidity;BME280_pressure;Samples;Min_cycle;Max_cycle;Signal;HPM_P1;HPM_P2
2021/11/09 00:01:20;;;;;;;8.55;3.90;;;;;;;19.13;44.10;102441.19;5132537;28;20030;-66
2021/11/09 00:03:49;;;;;;;8.40;4.07;;;;;;;19.14;43.96;102439.44;5133149;28;20048;-65
2021/11/09 00:06:22;;;;;;;6.82;3.88;;;;;;;19.12;44.02;102443.94;5131922;28;20031;-64
2021/11/09 00:09:07;;;;;;;9.35;3.92;;;;;;;19.11;44.04;102436.97;5132900;28;20038;-64
2021/11/09 00:11:32;;;;;;;9.27;4.35;;;;;;;19.08;43.74;102438.00;5132651;28;20402;-65
2021/11/09 00:13:58;;;;;;;7.60;3.92;;;;;;;19.06;44.13;102434.59;5131634;28;20031;-65
2021/11/09 00:16:27;;;;;;;6.40;3.72;;;;;;;19.04;43.79;102433.81;5133045;28;20027;-65
2021/11/09 00:18:52;;;;;;;7.93;3.88;;;;;;;19.01;44.09;102434.88;5132892;28;20027;-65
2021/11/09 00:21:20;;;;;;;10.27;4.05;;;;;;;19.02;43.90;102441.00;5131933;28;20443;-65
2021/11/09 00:23:46;;;;;;;11.27;4.25;;;;;;;19.00;44.14;102438.44;5132866;28;20054;-65
2021/11/09 00:26:13;;;;;;;7.82;3.83;;;;;;;18.98;44.05;102432.41;5131840;28;20024;-65
2021/11/09 00:28:39;;;;;;;10.75;3.85;;;;;;;18.96;43.98;102429.03;5132776;28;20031;-65
2021/11/09 00:31:04;;;;;;;8.07;4.10;;;;;;;18.92;43.95;102427.50;5132441;28;20041;-65
2021/11/09 00:33:30;;;;;;;9.00;4.45;;;;;;;18.93;43.93;102429.19;5132170;28;20035;-65
2021/11/09 00:35:55;;;;;;;8.32;4.22;;;;;;;18.92;43.49;102432.78;5134056;27;20027;-65
2021/11/09 00:38:21;;;;;;;7.47;3.78;;;;;;;18.91;43.71;102446.06;5136082;27;20034;-65
2021/11/09 00:40:47;;;;;;;7.72;4.03;;;;;;;18.90;43.74;102444.38;5135701;27;20023;-65
2021/11/09 00:43:15;;;;;;;7.93;4.13;;;;;;;18.87;43.53;102449.81;5136205;27;20459;-65
2021/11/09 00:45:41;;;;;;;7.35;3.75;;;;;;;18.87;43.74;102449.81;5136412;27;20031;-65
2021/11/09 00:48:07;;;;;;;9.10;3.92;;;;;;;18.84;43.59;102449.06;5134954;27;20071;-65
2021/11/09 00:50:33;;;;;;;8.13;4.28;;;;;;;18.83;43.44;102442.06;5136104;27;20038;-64
2021/11/09 00:52:59;;;;;;;7.90;4.53;;;;;;;18.82;43.48;102444.81;5135742;27;20534;-64
2021/11/09 00:55:26;;;;;;;6.47;3.90;;;;;;;18.80;43.69;102442.25;5135232;27;20034;-64
2021/11/09 00:57:52;;;;;;;7.78;4.00;;;;;;;18.79;43.51;102440.53;5136167;27;20023;-65
2021/11/09 01:00:22;;;;;;;8.68;4.22;;;;;;;18.78;43.69;102436.19;5135660;27;20023;-65
2021/11/09 01:02:51;;;;;;;8.50;4.40;;;;;;;18.77;43.41;102438.94;5135203;27;20019;-65
2021/11/09 01:05:22;;;;;;;8.55;3.90;;;;;;;18.75;43.69;102444.28;5135587;27;20452;-66
2021/11/09 01:07:55;;;;;;;8.32;4.13;;;;;;;18.74;43.38;102461.09;5135710;27;20505;-66
2021/11/09 01:10:21;;;;;;;8.35;4.18;;;;;;;18.74;43.47;102454.94;5134878;27;20062;-65
2021/11/09 01:12:46;;;;;;;7.30;4.40;;;;;;;18.72;43.26;102447.13;5135714;27;20039;-64
2021/11/09 01:15:13;;;;;;;6.60;3.88;;;;;;;18.71;43.61;102450.72;5135322;27;20023;-64
2021/11/09 01:17:45;;;;;;;7.70;4.13;;;;;;;18.70;43.25;102454.28;5135427;27;20026;-65
2021/11/09 01:20:16;;;;;;;7.88;4.10;;;;;;;18.68;43.47;102457.00;5135616;27;20019;-65
2021/11/09 01:22:42;;;;;;;9.38;4.35;;;;;;;18.67;43.27;102452.69;5135012;27;20133;-65
2021/11/09 01:25:09;;;;;;;9.20;4.53;;;;;;;18.66;43.29;102456.25;5134133;27;20110;-65
2021/11/09 01:27:35;;;;;;;8.57;4.63;;;;;;;18.63;43.29;102450.31;5135462;27;20039;-65
2021/11/09 01:30:01;;;;;;;7.88;4.18;;;;;;;18.63;43.32;102451.16;5134173;27;20027;-65
2021/11/09 01:32:27;;;;;;;8.05;4.18;;;;;;;18.62;43.25;102448.59;5135181;27;20027;-64
2021/11/09 01:34:53;;;;;;;7.93;4.20;;;;;;;18.62;43.10;102451.25;5135164;27;20020;-64
2021/11/09 01:37:18;;;;;;;6.53;3.78;;;;;;;18.60;43.30;102451.34;5133932;27;20062;-65
2021/11/09 01:39:46;;;;;;;9.50;4.07;;;;;;;18.60;43.10;102451.34;5135415;27;20121;-65
2021/11/09 01:42:12;;;;;;;7.82;3.65;;;;;;;18.59;43.25;102451.41;5134884;27;20035;-65
2021/11/09 01:44:37;;;;;;;7.35;4.18;;;;;;;18.58;43.45;102444.44;5134647;27;20027;-65
2021/11/09 01:47:02;;;;;;;8.70;4.38;;;;;;;18.57;42.94;102448.88;5134496;27;20474;-64
2021/11/09 01:49:28;;;;;;;7.00;4.05;;;;;;;18.57;43.14;102450.66;5134848;27;20034;-65
2021/11/09 01:51:53;;;;;;;7.32;4.15;;;;;;;18.55;43.00;102445.47;5115599;27;20088;-65
2021/11/09 01:54:19;;;;;;;10.02;4.07;;;;;;;18.55;43.13;102444.59;5134764;27;20108;-65
2021/11/09 01:56:44;;;;;;;8.10;4.50;;;;;;;18.54;42.74;102442.91;5134882;27;20394;-65
2021/11/09 01:59:10;;;;;;;8.98;3.90;;;;;;;18.53;43.22;102443.84;5133689;27;20541;-65
2021/11/09 02:01:38;;;;;;;8.00;4.50;;;;;;;18.52;42.83;102444.78;5134806;27;20023;-65
2021/11/09 02:04:07;;;;;;;8.15;4.00;;;;;;;18.50;43.14;102442.25;5134364;27;20465;-65
2021/11/09 02:06:33;;;;;;;7.72;4.10;;;;;;;18.49;42.83;102445.81;5133812;27;20102;-65
2021/11/09 02:09:12;;;;;;;6.90;4.03;;;;;;;18.49;42.88;102449.31;5134163;27;20522;-65
2021/11/09 02:11:37;;;;;;;8.20;4.40;;;;;;;18.48;43.02;102455.53;5133414;27;20133;-65
2021/11/09 02:14:04;;;;;;;9.23;4.25;;;;;;;18.45;42.82;102450.44;5134057;27;20102;-64
2021/11/09 02:16:29;;;;;;;9.40;4.60;;;;;;;18.46;43.00;102456.56;5134322;27;20020;-65
2021/11/09 02:18:55;;;;;;;7.68;4.18;;;;;;;18.45;43.10;102457.50;5133659;27;20019;-65
2021/11/09 02:21:20;;;;;;;8.52;4.57;;;;;;;18.45;42.82;102460.13;5134193;27;20023;-64
2021/11/09 02:23:47;;;;;;;6.80;3.72;;;;;;;18.43;43.00;102457.56;5134356;27;20027;-65
2021/11/09 02:26:15;;;;;;;8.50;4.15;;;;;;;18.41;43.02;102458.63;5133401;27;20076;-65
2021/11/09 02:28:42;;;;;;;8.02;4.22;;;;;;;18.41;42.88;102462.09;5134181;27;20482;-66
2021/11/09 02:31:12;;;;;;;6.93;3.83;;;;;;;18.42;42.64;102478.78;5133888;27;20027;-64
2021/11/09 02:33:38;;;;;;;7.97;4.38;;;;;;;18.41;42.58;102472.66;5136529;27;20062;-65
2021/11/09 02:36:03;;;;;;;7.60;4.00;;;;;;;18.39;42.63;102469.25;5139822;27;20022;-65
2021/11/09 02:38:29;;;;;;;8.10;3.88;;;;;;;18.39;42.61;102468.38;5140727;27;20019;-65
2021/11/09 02:40:57;;;;;;;7.85;4.20;;;;;;;18.38;42.69;102462.28;5141289;27;20059;-64
2021/11/09 02:43:23;;;;;;;7.38;4.20;;;;;;;18.38;42.94;102464.06;5141463;27;20043;-64
2021/11/09 02:48:49;;;;;;;7.70;4.13;;;;;;;18.35;42.58;102458.97;5141949;27;20027;-65
2021/11/09 02:51:22;;;;;;;8.07;3.92;;;;;;;18.35;42.63;102466.88;5141603;27;20485;-64
2021/11/09 02:54:23;;;;;;;8.15;4.15;;;;;;;18.31;42.77;102458.28;5141174;27;20038;-64
2021/11/09 02:56:48;;;;;;;8.68;4.00;;;;;;;18.31;42.85;102455.66;5133624;27;20041;-65
2021/11/09 03:00:20;;;;;;;7.90;4.32;;;;;;;18.27;42.86;102449.69;5133299;27;20034;-64
2021/11/09 03:02:36;;;;;;;9.60;5.10;;;;;;;18.30;42.75;102461.88;5114430;27;20043;-65
2021/11/09 03:05:29;;;;;;;9.23;4.35;;;;;;;18.27;42.84;102457.59;5133744;27;20432;-65
2021/11/09 03:07:52;;;;;;;7.90;3.97;;;;;;;18.26;42.68;102453.28;5132267;27;20027;-65
2021/11/09 03:10:33;;;;;;;6.32;3.65;;;;;;;18.28;42.95;102454.03;5133285;27;20131;-64
2021/11/09 03:13:02;;;;;;;7.78;4.50;;;;;;;18.29;42.88;102444.31;5133342;27;20121;-66
2021/11/09 03:15:29;;;;;;;8.27;3.70;;;;;;;18.27;42.86;102448.84;5133302;27;20102;-65
2021/11/09 03:18:05;;;;;;;10.00;4.50;;;;;;;18.30;42.60;102444.22;5133768;27;20370;-65
2021/11/09 03:20:59;;;;;;;7.55;3.80;;;;;;;18.33;42.50;102448.50;5133666;27;20041;-65
2021/11/09 03:45:36;;;;;;;6.95;3.67;;;;;;;18.41;42.46;102455.97;5132359;28;20069;-65
2021/11/09 03:48:10;;;;;;;7.07;3.70;;;;;;;18.39;42.19;102450.78;5133873;28;20463;-66
2021/11/09 03:50:38;;;;;;;8.10;4.32;;;;;;;18.40;42.06;102452.47;5134783;28;20026;-64
2021/11/09 03:53:14;;;;;;;7.57;3.75;;;;;;;18.42;42.16;102450.63;5133597;28;20027;-65
2021/11/09 04:00:48;;;;;;;7.53;3.78;;;;;;;18.39;42.03;102457.84;5133273;28;20127;-65
2021/11/09 04:06:22;;;;;;;7.95;4.32;;;;;;;18.39;42.33;102450.78;5132399;28;20076;-64
2021/11/09 04:12:31;;;;;;;8.32;4.07;;;;;;;18.40;41.97;102452.47;5078673;27;20160;-68
2021/11/09 04:14:39;;;;;;;8.48;4.20;;;;;;;18.41;41.84;102453.34;5127994;27;20035;-64
2021/11/09 04:17:12;;;;;;;7.80;3.60;;;;;;;18.42;41.98;102455.03;5136308;27;20107;-64
2021/11/09 04:19:53;;;;;;;7.78;3.50;;;;;;;18.42;41.90;102471.72;5135395;27;20046;-65
2021/11/09 04:23:16;;;;;;;8.93;4.28;;;;;;;18.42;41.67;102461.19;5136001;27;20085;-65
2021/11/09 04:28:04;;;;;;;6.97;3.65;;;;;;;18.43;41.67;102481.34;5136286;27;20051;-65
2021/11/09 04:39:21;;;;;;;8.38;3.83;;;;;;;18.43;41.53;102491.06;5136064;27;20555;-66
2021/11/09 05:08:55;;;;;;;7.55;4.13;;;;;;;18.38;41.61;102495.75;5135097;27;20035;-65
2021/11/09 05:11:20;;;;;;;7.40;3.53;;;;;;;18.38;41.38;102499.22;5135409;27;20047;-66
2021/11/09 05:13:46;;;;;;;6.95;3.85;;;;;;;18.38;41.74;102498.38;5135556;27;20362;-66
2021/11/09 05:16:11;;;;;;;8.20;3.63;;;;;;;18.39;41.58;102500.06;5134356;27;20040;-66
2021/11/09 05:18:36;;;;;;;9.05;4.55;;;;;;;18.39;41.21;102494.78;5135744;27;20035;-65
2021/11/09 05:21:02;;;;;;;8.25;3.90;;;;;;;18.38;41.58;102493.94;5134888;27;20300;-65
2021/11/09 05:23:27;;;;;;;8.35;4.45;;;;;;;18.40;41.27;102497.34;5134867;27;20047;-65
2021/11/09 05:25:55;;;;;;;6.95;3.58;;;;;;;18.40;41.45;102504.41;5135364;27;20023;-65
2021/11/09 05:28:21;;;;;;;7.90;3.90;;;;;;;18.41;41.02;102506.13;5135206;27;20047;-65
2021/11/09 05:30:49;;;;;;;7.43;3.83;;;;;;;18.40;41.04;102502.63;5134536;27;20062;-65
2021/11/09 05:33:16;;;;;;;7.45;3.63;;;;;;;18.39;41.31;102503.59;5135055;27;20575;-64
2021/11/09 05:35:41;;;;;;;6.47;3.80;;;;;;;18.38;41.08;102501.88;5134694;27;20031;-64
2021/11/09 05:38:09;;;;;;;7.68;3.80;;;;;;;18.38;41.45;102498.38;5135178;27;20011;-65
2021/11/09 05:40:40;;;;;;;7.70;3.95;;;;;;;18.37;41.01;102507.22;5135353;27;20434;-65
2021/11/09 05:43:06;;;;;;;6.32;3.60;;;;;;;18.37;41.40;102509.88;5134054;27;20030;-65
2021/11/09 05:45:32;;;;;;;7.20;3.28;;;;;;;18.36;41.15;102508.16;5134956;27;20019;-65
2021/11/09 05:47:58;;;;;;;8.88;3.67;;;;;;;18.34;41.00;102510.91;5134870;27;20157;-65
2021/11/09 05:50:25;;;;;;;8.40;3.75;;;;;;;18.34;41.38;102516.19;5134340;27;20024;-66
2021/11/09 05:52:56;;;;;;;9.80;4.32;;;;;;;18.34;41.00;102521.47;5134779;27;20024;-65
2021/11/09 05:55:22;;;;;;;10.40;3.70;;;;;;;18.34;41.48;102521.47;5134790;27;20027;-65
2021/11/09 05:57:47;;;;;;;8.18;3.92;;;;;;;18.34;41.25;102515.31;5133942;27;20043;-64
2021/11/09 06:00:13;;;;;;;7.28;3.70;;;;;;;18.33;41.48;102518.91;5134591;27;20023;-64
2021/11/09 06:02:39;;;;;;;7.00;3.65;;;;;;;18.32;41.41;102518.03;5134467;27;20486;-65
2021/11/09 06:05:06;;;;;;;9.05;4.15;;;;;;;18.35;41.46;102524.94;5133525;27;20389;-65
2021/11/09 06:07:31;;;;;;;8.68;4.38;;;;;;;18.34;41.25;102529.38;5134399;27;20352;-65
2021/11/09 06:09:56;;;;;;;7.10;3.78;;;;;;;18.36;41.39;102530.16;5134160;27;20064;-65
2021/11/09 06:12:22;;;;;;;6.80;3.67;;;;;;;18.36;41.32;102527.50;5133410;27;20067;-65
2021/11/09 06:14:47;;;;;;;8.70;4.20;;;;;;;18.37;41.30;102526.53;5134559;27;20050;-64
2021/11/09 06:17:12;;;;;;;7.72;3.70;;;;;;;18.37;41.64;102533.63;5134341;27;20019;-65
2021/11/09 06:19:41;;;;;;;8.30;3.95;;;;;;;18.40;42.80;102531.66;5133628;27;20031;-65
2021/11/09 06:22:06;;;;;;;6.90;3.38;;;;;;;18.42;43.35;102528.94;5134087;27;20103;-65
2021/11/09 06:24:32;;;;;;;8.20;3.95;;;;;;;18.45;44.18;102534.91;5134262;27;20095;-64
2021/11/09 06:26:58;;;;;;;7.78;3.70;;;;;;;18.48;44.22;102545.31;5132983;27;20122;-64
2021/11/09 06:29:26;;;;;;;7.57;3.33;;;;;;;18.50;43.99;102539.94;5134014;27;20518;-66
2021/11/09 06:31:53;;;;;;;11.00;4.00;;;;;;;18.53;44.31;102542.38;5133410;27;20019;-67
2021/11/09 06:34:18;;;;;;;9.10;3.78;;;;;;;18.55;44.30;102547.56;5132920;27;20035;-66
2021/11/09 06:36:44;;;;;;;6.32;3.20;;;;;;;18.59;44.17;102547.31;5134075;27;20088;-66
2021/11/09 06:39:09;;;;;;;8.75;3.58;;;;;;;18.62;42.57;102549.78;5132815;27;20347;-66
2021/11/09 06:41:35;;;;;;;8.10;3.42;;;;;;;18.63;42.83;102540.94;5133788;27;20443;-65
2021/11/09 06:44:00;;;;;;;8.05;3.35;;;;;;;18.68;43.13;102548.59;5133697;27;20019;-65
2021/11/09 06:46:26;;;;;;;6.65;3.25;;;;;;;18.72;43.09;102544.00;5133044;27;20065;-65
2021/11/09 06:48:51;;;;;;;6.28;3.30;;;;;;;18.75;43.38;102543.81;5133863;27;20042;-66
2021/11/09 06:51:17;;;;;;;5.22;2.92;;;;;;;18.79;43.08;102548.00;5133367;27;20046;-64
2021/11/09 06:53:43;;;;;;;7.55;3.70;;;;;;;18.82;42.88;102551.31;5133069;27;20031;-70
2021/11/09 06:56:11;;;;;;;7.88;3.00;;;;;;;18.83;42.63;102560.94;5136061;27;20386;-69
2021/11/09 06:58:36;;;;;;;7.57;3.10;;;;;;;18.98;42.01;102555.75;5135953;27;20063;-65
2021/11/09 07:01:04;;;;;;;8.13;3.50;;;;;;;19.03;42.11;102554.53;5132401;27;20104;-67
2021/11/09 07:03:32;;;;;;;6.72;3.20;;;;;;;19.07;42.22;102559.63;5115256;27;20030;-66
2021/11/09 07:05:58;;;;;;;9.20;3.63;;;;;;;19.07;41.97;102563.13;5133266;27;20098;-67
2021/11/09 07:08:23;;;;;;;6.97;3.38;;;;;;;19.08;42.52;102561.34;5132658;27;20501;-68
2021/11/09 07:10:48;;;;;;;8.43;3.03;;;;;;;19.08;42.62;102567.47;5133532;27;20047;-64
2021/11/09 07:13:14;;;;;;;4.97;2.70;;;;;;;19.10;42.91;102573.50;5133462;27;20313;-64
2021/11/09 07:15:40;;;;;;;7.72;3.30;;;;;;;19.11;42.73;102574.38;5132728;27;20037;-67
2021/11/09 07:18:07;;;;;;;8.02;3.25;;;;;;;19.11;42.89;102577.88;5133258;27;20047;-64
2021/11/09 07:20:37;;;;;;;6.65;2.65;;;;;;;19.13;42.63;102577.78;5133450;27;20077;-67
2021/11/09 07:23:03;;;;;;;6.55;3.20;;;;;;;19.15;42.38;102581.16;5132312;27;20029;-68
2021/11/09 07:25:30;;;;;;;7.93;3.13;;;;;;;19.13;42.68;102575.13;5133679;28;20037;-65
2021/11/09 07:27:55;;;;;;;9.68;3.20;;;;;;;19.16;42.71;102596.09;5133268;28;20466;-65
2021/11/09 07:30:23;;;;;;;5.97;2.97;;;;;;;19.17;42.92;102587.25;5132458;28;20110;-64
2021/11/09 07:32:51;;;;;;;7.60;3.28;;;;;;;19.19;43.05;102588.00;5133197;28;20080;-64
2021/11/09 07:35:17;;;;;;;8.02;2.80;;;;;;;19.20;42.81;102594.97;5132112;28;20066;-64
2021/11/09 07:37:42;;;;;;;7.53;3.22;;;;;;;19.19;42.43;102598.56;5133115;28;20035;-64
2021/11/09 07:40:11;;;;;;;5.50;2.88;;;;;;;19.20;42.67;102590.53;5132840;28;20030;-64
2021/11/09 07:42:40;;;;;;;5.88;2.72;;;;;;;19.20;42.70;102592.31;5132480;28;20075;-65
2021/11/09 07:45:06;;;;;;;6.85;2.60;;;;;;;19.23;42.89;102600.06;5134978;27;20458;-64
2021/11/09 07:47:31;;;;;;;7.75;3.25;;;;;;;19.24;42.69;102601.78;5135935;27;20058;-65
2021/11/09 07:49:56;;;;;;;6.63;2.92;;;;;;;19.24;42.88;102600.94;5136032;27;20027;-65
2021/11/09 07:52:22;;;;;;;7.28;3.08;;;;;;;19.27;42.95;102600.78;5137297;27;20470;-65
2021/11/09 07:54:49;;;;;;;7.82;3.10;;;;;;;19.25;42.41;102600.84;5137245;27;20019;-65
2021/11/09 07:57:16;;;;;;;6.05;2.72;;;;;;;19.25;42.75;102610.56;5136192;27;20110;-65
2021/11/09 07:59:51;;;;;;;6.20;2.80;;;;;;;19.28;42.78;102615.66;5137099;27;20027;-68
2021/11/09 08:05:09;;;;;;;11.02;3.72;;;;;;;19.28;42.68;102615.66;5136188;27;20043;-68
2021/11/09 08:07:51;;;;;;;6.28;2.72;;;;;;;19.28;42.27;102615.66;5136935;27;20380;-68
2021/11/09 08:10:19;;;;;;;8.32;3.35;;;;;;;19.28;42.14;102618.31;5135610;27;20042;-67
2021/11/09 08:12:44;;;;;;;6.63;3.33;;;;;;;19.27;42.18;102611.34;5136650;27;20031;-67
2021/11/09 08:15:09;;;;;;;6.17;3.10;;;;;;;19.28;42.16;102615.66;5136311;27;20060;-67
2021/11/09 08:17:35;;;;;;;8.13;3.38;;;;;;;19.27;42.30;102606.91;5135753;27;20282;-67
2021/11/09 08:20:00;;;;;;;7.25;3.00;;;;;;;19.27;42.32;102613.97;5136325;27;20022;-68
2021/11/09 08:22:25;;;;;;;6.27;3.03;;;;;;;19.28;42.61;102607.72;5136874;27;20398;-68
2021/11/09 08:24:51;;;;;;;5.88;3.00;;;;;;;19.28;42.05;102608.59;5135891;27;20279;-67
2021/11/09 08:27:17;;;;;;;6.97;3.10;;;;;;;19.28;42.03;102605.09;5136306;27;20031;-68
2021/11/09 08:29:49;;;;;;;7.40;2.80;;;;;;;19.28;41.99;102598.03;5136438;27;20098;-68
2021/11/09 08:32:19;;;;;;;7.20;3.13;;;;;;;19.29;41.91;102601.53;5135384;27;20641;-67
2021/11/09 08:34:51;;;;;;;6.38;3.03;;;;;;;19.28;42.27;102605.97;5136436;27;20043;-68
2021/11/09 08:37:16;;;;;;;6.35;3.00;;;;;;;19.29;42.30;102605.00;5136096;27;20027;-69
2021/11/09 08:39:43;;;;;;;7.57;2.97;;;;;;;19.30;42.62;102611.16;5135734;27;20035;-67
2021/11/09 08:42:27;;;;;;;8.82;3.10;;;;;;;19.30;42.63;102605.88;5136010;27;20050;-69
2021/11/09 08:45:03;;;;;;;7.20;2.78;;;;;;;19.29;42.16;102610.28;5136613;27;20359;-67
2021/11/09 08:47:32;;;;;;;10.75;3.50;;;;;;;19.30;42.21;102612.00;5135556;27;20031;-67
2021/11/09 08:49:58;;;;;;;9.40;3.65;;;;;;;19.30;42.01;102619.09;5135819;27;20054;-67
2021/11/09 08:52:31;;;;;;;6.65;3.05;;;;;;;19.30;42.18;102622.56;5135820;27;20035;-68
2021/11/09 08:55:53;;;;;;;6.20;3.15;;;;;;;19.29;41.94;102620.03;5136112;27;20369;-67
2021/11/09 08:58:17;;;;;;;6.57;3.10;;;;;;;19.29;42.08;102620.88;5126762;27;20058;-68
2021/11/09 09:06:11;;;;;;;6.22;3.10;;;;;;;19.30;42.63;102609.38;5139423;27;19938;-68
2021/11/09 09:08:37;;;;;;;7.38;2.97;;;;;;;19.30;42.63;102617.28;5135058;27;20458;-67
2021/11/09 09:11:03;;;;;;;5.70;2.70;;;;;;;19.27;42.50;102606.06;5135462;27;20031;-68
2021/11/09 09:13:28;;;;;;;5.68;2.90;;;;;;;19.31;42.02;102610.19;5135594;27;20030;-68
2021/11/09 09:15:57;;;;;;;6.85;2.88;;;;;;;19.29;42.17;102614.75;5135443;27;20031;-68
2021/11/09 09:18:22;;;;;;;8.05;3.35;;;;;;;19.29;41.75;102607.66;5135708;27;20470;-67
2021/11/09 09:20:53;;;;;;;6.50;3.03;;;;;;;19.28;42.54;102613.03;5134863;27;20027;-68
2021/11/09 09:23:22;;;;;;;8.40;3.00;;;;;;;19.29;42.70;102620.88;5135263;27;20023;-68
2021/11/09 09:56:09;;;;;;;6.38;2.70;;;;;;;19.30;42.97;102603.22;5133928;27;20463;-67
2021/11/09 09:58:34;;;;;;;6.60;2.97;;;;;;;19.30;42.77;102609.38;5134992;27;20127;-67
2021/11/09 10:01:00;;;;;;;5.43;2.30;;;;;;;19.30;42.94;102606.72;5134435;27;20026;-67
2021/11/09 10:03:54;;;;;;;7.35;2.60;;;;;;;19.31;42.91;102610.19;5133905;27;20337;-67
2021/11/09 10:06:20;;;;;;;;;;;;;;;19.29;42.93;102615.56;5131891;27;20043;-68
2021/11/09 10:08:49;;;;;;;5.10;2.22;;;;;;;19.30;43.07;102616.44;5134466;27;20001;-68
2021/11/09 10:11:28;;;;;;;6.13;2.55;;;;;;;19.31;42.78;102619.00;5133244;27;20436;-67
2021/11/09 10:13:54;;;;;;;4.65;2.28;;;;;;;19.30;43.12;102611.16;5134288;27;20035;-67
2021/11/09 10:16:19;;;;;;;4.80;2.25;;;;;;;19.32;43.05;102610.13;5134358;27;20088;-68
2021/11/09 10:18:44;;;;;;;6.25;2.50;;;;;;;19.32;43.27;102611.91;5133660;27;20046;-67
2021/11/09 10:21:12;;;;;;;6.47;2.60;;;;;;;19.32;43.02;102611.91;5134149;27;20462;-68
2021/11/09 10:23:38;;;;;;;4.30;2.17;;;;;;;19.32;42.96;102604.81;5134359;27;20052;-68
2021/11/09 10:26:15;;;;;;;5.25;2.08;;;;;;;19.34;43.15;102607.38;5133175;27;20041;-68
2021/11/09 10:28:42;;;;;;;5.00;2.40;;;;;;;19.33;43.15;102609.19;5134428;27;20076;-68
2021/11/09 10:31:10;;;;;;;6.22;2.40;;;;;;;19.34;43.31;102610.91;5132976;27;20497;-67
2021/11/09 10:33:43;;;;;;;6.78;2.53;;;;;;;19.35;43.41;102609.09;5134140;27;20042;-67
2021/11/09 10:36:17;;;;;;;5.90;2.40;;;;;;;19.35;43.31;102609.09;5133846;27;20030;-68
2021/11/09 10:38:42;;;;;;;;;;;;;;;19.34;43.07;102607.38;5133674;27;20049;-67
2021/11/09 10:41:07;;;;;;;4.30;1.80;;;;;;;19.36;43.13;102616.94;5133888;27;19911;-67
2021/11/09 10:43:33;;;;;;;6.60;2.58;;;;;;;19.35;43.32;102609.94;5134087;27;20019;-67
2021/11/09 10:46:00;;;;;;;5.90;2.33;;;;;;;19.35;43.37;102607.28;5133103;27;20034;-68
2021/11/09 10:48:27;;;;;;;6.00;2.25;;;;;;;19.36;43.31;102606.34;5134138;27;20027;-68
2021/11/09 10:50:55;;;;;;;7.10;2.40;;;;;;;19.35;43.50;102609.94;5133961;27;20035;-68
2021/11/09 10:53:39;;;;;;;5.28;2.30;;;;;;;19.36;43.27;102609.00;5132486;27;20115;-68
2021/11/09 10:59:23;;;;;;;5.00;2.08;;;;;;;19.35;43.27;102594.06;5098017;27;20106;-67
2021/11/09 11:04:42;;;;;;;7.28;2.30;;;;;;;19.36;43.56;102597.59;5134034;27;20382;-67
2021/11/09 11:07:10;;;;;;;5.13;1.95;;;;;;;19.36;43.36;102595.78;5132411;27;20019;-66
2021/11/09 11:09:56;;;;;;;4.90;1.85;;;;;;;19.36;43.52;102595.78;5133400;27;20031;-66
2021/11/09 11:12:26;;;;;;;5.55;2.15;;;;;;;19.37;43.54;102593.97;5133176;27;20115;-66
2021/11/09 11:14:55;;;;;;;6.38;2.47;;;;;;;19.36;43.45;102587.00;5132791;27;20071;-67
2021/11/09 11:17:20;;;;;;;5.60;2.40;;;;;;;19.37;43.35;102586.06;5133218;27;20027;-66
2021/11/09 11:19:53;;;;;;;6.55;2.25;;;;;;;19.37;43.36;102592.19;5133063;27;20058;-66
2021/11/09 11:22:24;;;;;;;7.20;2.25;;;;;;;19.36;43.21;102587.84;5131551;27;20046;-72
2021/11/09 11:24:52;;;;;;;8.32;2.60;;;;;;;19.36;43.23;102585.22;5133290;27;20122;-66
2021/11/09 11:27:19;;;;;;;6.05;2.33;;;;;;;19.34;43.07;102587.09;5132409;28;20033;-61
2021/11/09 11:29:44;;;;;;;5.38;2.08;;;;;;;19.34;43.00;102589.75;5133248;28;20035;-67
2021/11/09 11:32:13;;;;;;;5.88;2.42;;;;;;;19.33;43.12;102593.31;5132924;28;20023;-67
2021/11/09 11:34:39;;;;;;;5.88;2.22;;;;;;;19.32;43.31;102591.59;5132440;28;20031;-67
2021/11/09 11:37:05;;;;;;;5.68;2.22;;;;;;;19.34;43.49;102597.69;5132918;28;20099;-67
2021/11/09 11:39:34;;;;;;;4.05;1.83;;;;;;;19.35;43.72;102595.88;5133315;28;20466;-67
2021/11/09 11:42:02;;;;;;;6.32;2.45;;;;;;;19.34;43.65;102595.03;5132181;28;20123;-67
2021/11/09 11:44:33;;;;;;;6.03;2.03;;;;;;;19.36;43.51;102597.59;5133254;28;20114;-67
2021/11/09 11:47:02;;;;;;;6.82;2.83;;;;;;;19.35;43.62;102587.94;5132846;28;20483;-67
2021/11/09 11:49:38;;;;;;;6.40;2.30;;;;;;;19.36;43.62;102587.84;5132351;28;20051;-67
2021/11/09 11:52:06;;;;;;;5.97;2.22;;;;;;;19.36;43.68;102585.22;5132697;28;20466;-66
2021/11/09 11:55:00;;;;;;;5.75;2.25;;;;;;;19.37;43.35;102580.75;5133332;28;20088;-65
2021/11/09 11:57:29;;;;;;;5.30;2.22;;;;;;;19.37;43.53;102578.13;5132452;28;20051;-66
2021/11/09 11:59:55;;;;;;;4.72;1.90;;;;;;;19.37;43.53;102573.66;5132995;28;20038;-67
2021/11/09 12:02:35;;;;;;;4.85;2.10;;;;;;;19.38;43.63;102571.91;5131968;28;20417;-67
2021/11/09 12:05:01;;;;;;;7.10;2.08;;;;;;;19.38;43.72;102566.63;5132917;28;20031;-67
2021/11/09 12:07:49;;;;;;;6.88;2.25;;;;;;;19.38;43.44;102567.47;5132995;28;20036;-66
2021/11/09 12:10:15;;;;;;;5.55;1.85;;;;;;;19.38;43.64;102556.88;5131710;28;20039;-67
2021/11/09 12:12:40;;;;;;;4.97;1.85;;;;;;;19.39;43.39;102563.00;5132713;28;20026;-67
2021/11/09 12:15:10;;;;;;;5.82;2.42;;;;;;;19.37;43.41;102555.16;5132609;28;20076;-67
2021/11/09 12:17:43;;;;;;;5.65;1.98;;;;;;;19.38;43.41;102558.69;5132329;28;20073;-66
2021/11/09 12:20:10;;;;;;;7.40;2.13;;;;;;;19.39;42.81;102563.00;5132422;28;20470;-66
2021/11/09 12:22:51;;;;;;;5.60;2.67;;;;;;;19.38;43.20;102556.03;5132797;28;20107;-65
2021/11/09 12:25:32;;;;;;;3.88;1.90;;;;;;;19.38;43.30;102556.88;5131977;28;20053;-64
2021/11/09 12:28:02;;;;;;;6.40;2.20;;;;;;;19.37;43.31;102549.88;5132581;28;20034;-64
2021/11/09 12:30:39;;;;;;;5.53;1.98;;;;;;;19.39;43.43;102548.03;5132370;27;20039;-67
2021/11/09 12:33:10;;;;;;;5.20;1.98;;;;;;;19.42;43.19;102548.75;5135684;27;20127;-67
2021/11/09 12:35:36;;;;;;;5.90;2.17;;;;;;;19.43;43.39;102538.09;5137059;27;20038;-65
2021/11/09 12:38:13;;;;;;;7.07;2.20;;;;;;;19.44;43.65;102536.28;5135851;27;20023;-67
2021/11/09 12:40:55;;;;;;;6.72;2.20;;;;;;;19.45;43.63;102535.38;5136681;27;20088;-66
2021/11/09 12:43:43;;;;;;;6.80;2.33;;;;;;;19.47;43.59;102528.19;5136282;27;20043;-67
2021/11/09 12:46:12;;;;;;;6.47;1.98;;;;;;;19.49;43.53;102529.81;5135138;27;20019;-67
2021/11/09 12:48:53;;;;;;;8.52;2.10;;;;;;;19.51;43.82;102525.25;5136220;27;20526;-66
2021/11/09 12:51:21;;;;;;;6.32;1.70;;;;;;;19.52;43.73;102521.69;5135922;27;20405;-65
2021/11/09 12:53:48;;;;;;;5.25;2.20;;;;;;;19.54;43.49;102513.66;5135399;27;20035;-65
2021/11/09 12:56:36;;;;;;;6.05;2.00;;;;;;;19.56;43.81;102522.34;5135690;27;20106;-65
2021/11/09 12:59:29;;;;;;;5.50;2.08;;;;;;;19.58;43.46;102517.78;5118310;27;20045;-66
2021/11/09 13:07:20;;;;;;;6.57;2.47;;;;;;;19.63;43.63;102509.59;5134869;27;20475;-66
2021/11/09 13:09:49;;;;;;;6.97;2.17;;;;;;;19.65;43.52;102519.13;5139088;27;20054;-68
2021/11/09 13:12:26;;;;;;;5.65;2.13;;;;;;;19.71;43.25;102520.53;5135752;27;20089;-67
2021/11/09 13:15:05;;;;;;;5.60;1.95;;;;;;;19.80;43.19;102519.16;5135317;27;20488;-67
2021/11/09 13:17:35;;;;;;;5.18;1.88;;;;;;;19.88;43.02;102519.53;5135979;27;20041;-68
2021/11/09 13:22:53;;;;;;;6.50;2.10;;;;;;;20.08;43.36;102519.13;5136189;27;20035;-72
2021/11/09 13:25:27;;;;;;;6.10;2.00;;;;;;;20.20;42.98;102521.94;5135909;27;20118;-72
2021/11/09 13:27:52;;;;;;;;;;;;;;;20.27;42.94;102510.88;5136804;27;20023;-72
2021/11/09 13:30:39;;;;;;;5.93;2.13;;;;;;;20.40;43.33;102510.09;5136051;27;19955;-72
2021/11/09 13:33:12;;;;;;;8.73;2.25;;;;;;;20.50;42.73;102507.69;5121072;27;20039;-74
2021/11/09 13:35:43;;;;;;;6.38;2.20;;;;;;;20.58;42.35;102505.38;5135375;27;20174;-69
2021/11/09 13:38:15;;;;;;;5.35;2.22;;;;;;;20.74;42.03;102498.13;5134770;27;20027;-69
2021/11/09 13:40:45;;;;;;;6.25;1.92;;;;;;;21.55;40.04;102505.06;5135854;27;20486;-72
2021/11/09 13:43:25;;;;;;;4.10;1.80;;;;;;;21.51;40.17;102495.59;5136866;27;20488;-78
2021/11/09 13:46:02;;;;;;;7.43;2.40;;;;;;;21.33;40.68;102494.19;5137158;27;20023;-71